Time;durP1;ratioP1;P1;durP2;ratioP2;P2;SDS_P1;SDS_P2;PMS_P1;PMS_P2;Temp;Humidity;BMP_temperature;BMP_pressure;BME280_temperature;BME280_humidity;BME280_pressure;Samples;Min_cycle;Max_cycle;Signal;HPM_P1;HPM_P2
2023/05/10 00:01:48;;;;;;;7.00;3.47;;;;;;;9.39;64.30;100778.88;1715125;83;21180;-78
2023/05/10 00:04:34;;;;;;;8.65;4.72;;;;;;;9.45;64.26;100777.72;1714772;83;21223;-78
2023/05/10 00:07:26;;;;;;;7.35;3.80;;;;;;;9.42;64.40;100774.47;1715088;83;21282;-78
2023/05/10 00:10:13;;;;;;;5.62;3.08;;;;;;;9.42;64.34;100771.75;1714980;83;21196;-77
2023/05/10 00:13:06;;;;;;;7.10;3.67;;;;;;;9.28;65.07;100770.94;1715149;83;21795;-78
2023/05/10 00:15:52;;;;;;;8.15;3.85;;;;;;;9.14;65.90;100765.52;1714109;83;21176;-78
2023/05/10 00:18:57;;;;;;;7.25;3.20;;;;;;;9.18;65.95;100766.41;1715163;83;21569;-79
2023/05/10 00:22:02;;;;;;;12.18;3.00;;;;;;;9.35;65.52;100766.55;1715069;83;21172;-79
2023/05/10 00:25:09;;;;;;;8.25;3.67;;;;;;;9.20;65.90;100762.16;1714836;83;21227;-79
2023/05/10 00:28:13;;;;;;;6.17;3.20;;;;;;;9.32;65.71;100760.06;1715269;83;21330;-79
2023/05/10 00:31:19;;;;;;;4.75;3.10;;;;;;;9.32;65.68;100758.19;1715054;83;21192;-79
2023/05/10 00:34:25;;;;;;;6.20;3.60;;;;;;;9.29;66.03;100756.27;1713761;83;21758;-78
2023/05/10 00:37:31;;;;;;;19.07;4.50;;;;;;;9.42;65.39;100760.31;1715111;83;21184;-78
2023/05/10 00:40:37;;;;;;;7.15;3.70;;;;;;;9.52;64.90;100749.30;1715002;83;21754;-78
2023/05/10 00:43:44;;;;;;;10.58;4.15;;;;;;;9.55;65.13;100757.19;1715008;83;21184;-78
2023/05/10 00:46:50;;;;;;;10.30;4.05;;;;;;;9.48;65.34;100758.81;1713761;83;21220;-78
2023/05/10 00:49:56;;;;;;;13.95;4.62;;;;;;;9.33;66.13;100755.80;1714926;83;21227;-78
2023/05/10 00:53:01;;;;;;;8.10;4.28;;;;;;;9.39;65.73;100753.80;1713561;83;21815;-78
2023/05/10 00:56:07;;;;;;;11.05;5.55;;;;;;;9.55;65.10;100753.56;1714540;83;21758;-79
2023/05/10 00:59:13;;;;;;;6.85;3.98;;;;;;;9.42;65.21;100752.13;1715045;83;21220;-78
2023/05/10 01:02:12;;;;;;;14.65;4.55;;;;;;;9.32;65.46;100757.33;1715079;83;21223;-78
2023/05/10 01:05:19;;;;;;;5.95;4.03;;;;;;;9.18;66.09;100749.19;1714945;83;21224;-78
2023/05/10 01:08:25;;;;;;;7.78;4.20;;;;;;;9.36;66.01;100745.94;1715221;83;21188;-79
2023/05/10 01:11:31;;;;;;;6.95;4.33;;;;;;;9.12;66.52;100742.45;1715120;83;21231;-79
2023/05/10 01:14:36;;;;;;;12.03;4.35;;;;;;;9.20;66.62;100740.32;1714989;83;21232;-79
2023/05/10 01:17:42;;;;;;;7.60;3.80;;;;;;;9.38;65.73;100736.22;1715096;83;21235;-79
2023/05/10 01:20:51;;;;;;;5.97;3.80;;;;;;;9.36;65.68;100736.86;1715000;83;21180;-79
2023/05/10 01:24:45;;;;;;;10.03;4.10;;;;;;;9.32;65.72;100737.71;1713593;83;21192;-79
2023/05/10 01:28:37;;;;;;;9.30;4.20;;;;;;;9.30;65.76;100740.23;1713794;83;21179;-78
2023/05/10 01:32:15;;;;;;;10.85;3.40;;;;;;;9.13;65.93;100737.38;1715245;83;21200;-78
2023/05/10 01:35:34;;;;;;;8.35;4.25;;;;;;;8.99;66.13;100732.94;1714934;83;21185;-78
2023/05/10 01:39:01;;;;;;;6.22;4.12;;;;;;;8.85;66.38;100733.86;1715409;83;21263;-78
2023/05/10 01:42:16;;;;;;;5.90;3.72;;;;;;;8.84;66.64;100731.27;1713617;83;21271;-78
2023/05/10 01:45:46;;;;;;;13.15;4.28;;;;;;;8.68;67.27;100736.05;1715129;83;21259;-79
2023/05/10 01:48:58;;;;;;;10.03;5.35;;;;;;;8.84;67.16;100734.84;1713943;83;21192;-79
2023/05/10 01:52:15;;;;;;;9.95;5.20;;;;;;;8.89;67.00;100731.66;1715072;83;21192;-79
2023/05/10 01:55:22;;;;;;;14.45;6.83;;;;;;;8.96;66.83;100731.41;1714474;83;21822;-79
2023/05/10 01:58:39;;;;;;;12.18;6.97;;;;;;;9.07;66.35;100726.20;1694413;84;21275;-79
2023/05/10 02:01:45;;;;;;;14.38;7.00;;;;;;;9.06;66.51;100727.23;1694075;84;21240;-79
2023/05/10 02:04:51;;;;;;;13.60;6.53;;;;;;;9.25;65.81;100724.33;1692837;84;21208;-79
2023/05/10 02:07:57;;;;;;;7.67;4.72;;;;;;;9.39;65.22;100723.76;1692930;84;21223;-78
2023/05/10 02:11:04;;;;;;;10.53;4.85;;;;;;;9.35;65.24;100725.09;1693248;84;21275;-79
2023/05/10 02:14:10;;;;;;;11.40;4.50;;;;;;;9.37;65.14;100716.76;1694161;84;21256;-79
2023/05/10 02:17:16;;;;;;;9.95;4.40;;;;;;;9.45;64.73;100716.29;1693405;84;21247;-79
2023/05/10 02:20:22;;;;;;;12.82;4.70;;;;;;;9.50;64.35;100721.27;1694210;84;21192;-79
2023/05/10 02:23:28;;;;;;;11.83;4.12;;;;;;;9.32;65.00;100724.57;1694267;84;21201;-79
2023/05/10 02:26:34;;;;;;;11.12;3.90;;;;;;;9.33;64.97;100717.58;1693693;84;21877;-79
2023/05/10 02:29:41;;;;;;;10.55;4.15;;;;;;;9.20;65.12;100719.85;1692968;84;21212;-79
2023/05/10 02:32:46;;;;;;;11.03;3.90;;;;;;;9.20;65.01;100727.53;1694674;84;21756;-79
2023/05/10 02:35:52;;;;;;;15.78;4.95;;;;;;;9.45;64.09;100725.84;1694037;84;21734;-79
2023/05/10 02:38:59;;;;;;;10.53;5.47;;;;;;;9.40;63.98;100725.47;1665257;84;21184;-79
2023/05/10 02:42:06;;;;;;;9.33;6.35;;;;;;;9.26;64.12;100725.18;1693034;84;21212;-78
2023/05/10 02:45:18;;;;;;;11.12;6.33;;;;;;;9.25;64.43;100722.96;1694116;84;21755;-79
2023/05/10 02:48:16;;;;;;;12.45;5.37;;;;;;;9.21;64.23;100720.20;1692731;84;21244;-79
2023/05/10 02:51:13;;;;;;;11.30;5.62;;;;;;;9.26;64.35;100722.45;1694317;84;21192;-79
2023/05/10 02:54:28;;;;;;;9.20;4.75;;;;;;;9.23;64.57;100719.55;1694077;84;21196;-79
2023/05/10 02:57:36;;;;;;;8.48;4.87;;;;;;;9.12;64.87;100724.72;1706193;83;21197;-79
2023/05/10 03:00:40;;;;;;;11.93;5.17;;;;;;;9.36;64.36;100725.46;1730553;83;21882;-79
2023/05/10 03:03:46;;;;;;;6.35;4.20;;;;;;;9.08;65.10;100725.19;1731896;83;21241;-79
2023/05/10 03:06:52;;;;;;;8.03;4.37;;;;;;;9.10;65.37;100727.27;1731696;83;21264;-78
2023/05/10 03:09:58;;;;;;;5.92;4.03;;;;;;;9.04;65.51;100737.45;1731541;83;21245;-79
2023/05/10 03:13:30;;;;;;;6.30;3.45;;;;;;;8.94;65.75;100730.20;1731570;83;21197;-79
2023/05/10 03:16:43;;;;;;;;;;;;;;;9.09;65.69;100732.39;1734121;83;21248;-79
2023/05/10 03:20:01;;;;;;;19.23;4.90;;;;;;;9.06;66.05;100733.54;1710859;83;20377;-79
2023/05/10 03:23:32;;;;;;;18.73;9.85;;;;;;;9.20;66.11;100733.50;1731687;83;21189;-79
2023/05/10 03:26:30;;;;;;;25.27;13.62;;;;;;;9.34;66.05;100738.39;1731147;83;21279;-79
2023/05/10 03:29:38;;;;;;;24.57;11.73;;;;;;;9.58;65.97;100739.60;1731632;83;21193;-79
2023/05/10 03:32:45;;;;;;;25.02;13.80;;;;;;;9.58;66.38;100744.55;1731668;83;21249;-79
2023/05/10 03:35:53;;;;;;;21.02;9.45;;;;;;;9.71;66.43;100749.61;1731543;83;21189;-79
2023/05/10 03:38:59;;;;;;;19.02;8.58;;;;;;;9.83;66.47;100746.94;1730203;83;21205;-79
2023/05/10 03:42:04;;;;;;;17.98;7.37;;;;;;;10.19;65.49;100741.34;1730716;83;21268;-79
2023/05/10 03:45:10;;;;;;;15.23;6.22;;;;;;;10.45;64.68;100743.55;1731749;83;21248;-79
2023/05/10 03:48:15;;;;;;;14.40;6.40;;;;;;;10.53;64.38;100739.98;1730983;83;21284;-79
2023/05/10 03:51:22;;;;;;;14.28;6.65;;;;;;;10.73;63.59;100741.95;1731644;83;21748;-79
2023/05/10 03:54:27;;;;;;;14.73;6.80;;;;;;;10.93;62.81;100741.98;1731650;83;21197;-78
2023/05/10 03:57:32;;;;;;;21.42;8.15;;;;;;;11.10;62.22;100741.98;1730856;83;21836;-79
2023/05/10 04:00:43;;;;;;;21.50;7.85;;;;;;;11.08;62.02;100746.80;1730645;83;21264;-79
2023/05/10 04:03:45;;;;;;;15.10;5.90;;;;;;;11.20;61.73;100742.71;1731705;83;21193;-79
2023/05/10 04:06:51;;;;;;;11.55;5.15;;;;;;;11.36;61.23;100738.59;1731647;83;21237;-79
2023/05/10 04:09:56;;;;;;;11.43;5.15;;;;;;;11.33;61.20;100743.55;1731499;83;21233;-79
2023/05/10 04:13:02;;;;;;;15.90;4.37;;;;;;;11.50;60.73;100744.76;1730728;83;21277;-79
2023/05/10 04:16:09;;;;;;;10.55;4.03;;;;;;;11.64;60.17;100747.31;1730344;83;21296;-79
2023/05/10 04:19:15;;;;;;;8.20;4.03;;;;;;;11.71;59.81;100741.98;1730582;83;21189;-79
2023/05/10 04:22:20;;;;;;;14.43;5.17;;;;;;;11.60;60.15;100741.84;1731566;83;22510;-79
2023/05/10 04:25:26;;;;;;;11.15;4.60;;;;;;;11.66;59.96;100743.02;1731697;83;21241;-79
2023/05/10 04:28:33;;;;;;;9.90;4.72;;;;;;;11.82;59.90;100751.77;1730466;83;21201;-79
2023/05/10 04:31:38;;;;;;;11.38;5.35;;;;;;;12.04;59.09;100746.92;1731730;83;21190;-79
2023/05/10 04:34:45;;;;;;;8.50;4.40;;;;;;;12.07;58.87;100748.48;1731706;83;21173;-79
2023/05/10 04:37:51;;;;;;;14.68;4.87;;;;;;;12.09;58.61;100744.55;1732322;83;21248;-78
2023/05/10 04:40:57;;;;;;;11.88;3.95;;;;;;;12.20;57.42;100748.78;1731688;83;21229;-79
2023/05/10 04:44:02;;;;;;;10.53;4.28;;;;;;;12.17;56.20;100746.39;1730461;83;21261;-79
2023/05/10 04:47:08;;;;;;;14.75;4.22;;;;;;;12.30;55.88;100742.58;1731547;83;21228;-79
2023/05/10 04:50:07;;;;;;;;;;;;;;;12.24;55.95;100740.55;1732945;83;21213;-79
2023/05/10 04:53:13;;;;;;;7.12;3.22;;;;;;;12.38;55.51;100741.70;1731562;83;20214;-79
2023/05/10 04:56:19;;;;;;;7.60;2.72;;;;;;;12.59;54.19;100739.70;1731576;83;21839;-79
2023/05/10 04:59:26;;;;;;;3.30;2.22;;;;;;;12.64;53.64;100747.73;1727340;81;21263;-80
2023/05/10 05:02:32;;;;;;;5.15;2.37;;;;;;;12.89;53.40;100741.61;1715200;83;21184;-79
2023/05/10 05:05:38;;;;;;;4.40;2.30;;;;;;;13.12;52.38;100738.01;1713676;83;21176;-79
2023/05/10 05:08:45;;;;;;;8.30;2.55;;;;;;;13.29;50.60;100736.89;1714972;83;21227;-79
2023/05/10 05:11:50;;;;;;;5.72;1.98;;;;;;;13.48;49.25;100743.26;1728929;80;21842;-79
2023/05/10 05:14:56;;;;;;;4.60;2.27;;;;;;;13.59;47.68;100740.58;1733265;82;21164;-79
2023/05/10 05:18:02;;;;;;;8.38;2.27;;;;;;;13.66;46.27;100733.84;1707482;84;21168;-79
2023/05/10 05:21:07;;;;;;;8.08;2.60;;;;;;;13.74;46.53;100745.62;1717397;82;21172;-79
2023/05/10 05:24:13;;;;;;;5.70;2.77;;;;;;;13.86;46.74;100746.00;1715443;82;21204;-79
2023/05/10 05:27:25;;;;;;;7.45;2.10;;;;;;;13.93;45.56;100733.22;1741624;82;21252;-79
2023/05/10 05:30:28;;;;;;;4.37;2.50;;;;;;;14.04;45.25;100739.63;1732482;82;21221;-80
2023/05/10 05:33:34;;;;;;;10.53;2.10;;;;;;;13.85;44.56;100742.92;1738747;82;21212;-79
2023/05/10 05:36:39;;;;;;;5.35;1.70;;;;;;;13.80;44.38;100746.23;1742464;80;21168;-79
2023/05/10 05:39:45;;;;;;;7.10;1.72;;;;;;;13.72;43.84;100741.33;1738358;82;21192;-78
2023/05/10 05:42:52;;;;;;;9.20;2.00;;;;;;;13.75;44.00;100740.97;1739447;82;21172;-79
2023/05/10 05:45:59;;;;;;;1.72;1.10;;;;;;;13.85;43.79;100744.83;1740514;82;21173;-78
2023/05/10 05:49:04;;;;;;;3.62;1.47;;;;;;;14.04;43.65;100747.02;1734770;82;21201;-78
2023/05/10 05:52:11;;;;;;;1.17;1.07;;;;;;;14.17;42.87;100735.37;1740026;82;21750;-79
2023/05/10 05:55:17;;;;;;;7.90;1.27;;;;;;;14.11;41.21;100732.83;1741329;82;21739;-78
2023/05/10 05:58:22;;;;;;;1.47;1.00;;;;;;;14.04;40.93;100738.25;1736886;81;21283;-79
2023/05/10 06:01:28;;;;;;;1.55;1.10;;;;;;;13.96;40.57;100739.70;1740120;82;21224;-78
2023/05/10 06:04:34;;;;;;;4.97;1.50;;;;;;;14.15;40.43;100730.56;1736126;82;21192;-78
2023/05/10 06:07:46;;;;;;;2.77;1.07;;;;;;;14.22;40.74;100737.88;1732771;82;21220;-79
2023/05/10 06:10:50;;;;;;;6.22;1.20;;;;;;;14.31;40.39;100744.15;1745321;81;21228;-78
2023/05/10 06:13:57;;;;;;;2.22;1.30;;;;;;;14.19;39.99;100741.53;1738271;82;21277;-79
2023/05/10 06:17:03;;;;;;;2.90;1.15;;;;;;;14.13;40.88;100737.64;1742075;82;21843;-79
2023/05/10 06:20:09;;;;;;;1.77;1.10;;;;;;;14.22;40.45;100731.01;1740834;80;21188;-79
2023/05/10 06:23:15;;;;;;;5.75;1.20;;;;;;;14.53;40.33;100729.43;1746525;82;21176;-79
2023/05/10 06:26:20;;;;;;;1.55;1.17;;;;;;;14.31;40.05;100731.23;1742741;82;21216;-79
2023/05/10 06:29:26;;;;;;;4.20;1.10;;;;;;;14.35;39.84;100732.22;1741070;82;21227;-79
2023/05/10 06:32:32;;;;;;;5.10;1.12;;;;;;;14.37;40.25;100729.63;1742518;82;21168;-79
2023/05/10 06:35:38;;;;;;;7.97;1.40;;;;;;;14.43;39.92;100732.97;1738186;81;21177;-78
2023/05/10 06:38:46;;;;;;;4.00;1.30;;;;;;;14.39;39.57;100730.27;1738750;80;21267;-78
2023/05/10 06:41:52;;;;;;;3.12;1.27;;;;;;;14.46;40.56;100731.75;1734352;82;21192;-79
2023/05/10 06:44:57;;;;;;;2.87;1.40;;;;;;;14.58;40.18;100731.61;1737412;82;21192;-78
2023/05/10 06:48:03;;;;;;;4.00;1.50;;;;;;;14.61;40.32;100731.23;1740384;80;21157;-79
2023/05/10 06:51:10;;;;;;;1.90;1.20;;;;;;;14.68;39.86;100728.05;1738383;80;21221;-79
2023/05/10 06:54:16;;;;;;;5.95;1.60;;;;;;;14.93;38.89;100727.70;1734353;82;21232;-79
2023/05/10 06:57:22;;;;;;;5.70;1.17;;;;;;;15.04;38.36;100739.05;1740575;82;21176;-79
2023/05/10 07:00:31;;;;;;;3.12;1.00;;;;;;;15.06;38.24;100721.81;1734088;82;21184;-80
2023/05/10 07:03:36;;;;;;;1.77;1.02;;;;;;;15.20;37.72;100735.73;1735212;82;21243;-80
2023/05/10 07:06:41;;;;;;;6.25;1.17;;;;;;;15.23;37.85;100725.15;1733034;82;21223;-80
2023/05/10 07:09:47;;;;;;;3.25;1.20;;;;;;;15.31;37.94;100731.06;1718589;83;21212;-79
2023/05/10 07:12:53;;;;;;;3.22;1.22;;;;;;;15.36;37.13;100713.41;1725561;82;21176;-79
2023/05/10 07:16:00;;;;;;;4.40;1.30;;;;;;;15.43;38.30;100714.34;1743341;82;21274;-79
2023/05/10 07:19:06;;;;;;;4.58;1.50;;;;;;;15.45;38.09;100719.11;1730193;82;21728;-79
2023/05/10 07:22:12;;;;;;;5.28;1.47;;;;;;;15.51;38.07;100716.94;1736132;82;21226;-79
2023/05/10 07:25:17;;;;;;;4.92;1.32;;;;;;;15.48;37.64;100714.59;1740949;82;21232;-79
2023/05/10 07:28:39;;;;;;;6.10;1.20;;;;;;;15.45;38.11;100714.98;1743040;82;21244;-79
2023/05/10 07:31:25;;;;;;;8.98;1.37;;;;;;;15.51;38.15;100712.80;1731297;82;21237;-79
2023/05/10 07:34:31;;;;;;;3.20;1.52;;;;;;;15.73;38.04;100715.04;1738764;82;21178;-79
2023/05/10 07:37:36;;;;;;;2.83;1.50;;;;;;;15.88;37.19;100719.59;1739374;81;21184;-81
2023/05/10 07:40:42;;;;;;;5.67;1.50;;;;;;;15.76;37.11;100731.69;1743766;82;21317;-78
2023/05/10 07:43:48;;;;;;;4.08;1.70;;;;;;;15.57;37.21;100716.66;1736835;82;21190;-79
2023/05/10 07:46:53;;;;;;;2.60;1.30;;;;;;;15.64;37.76;100715.38;1737982;81;22559;-78
2023/05/10 07:49:59;;;;;;;8.68;1.60;;;;;;;15.69;37.50;100715.11;1738831;82;21637;-79
2023/05/10 07:53:05;;;;;;;2.85;1.40;;;;;;;15.70;37.45;100714.58;1753203;81;21228;-79
2023/05/10 07:56:32;;;;;;;1.30;1.07;;;;;;;15.66;38.75;100713.27;1737811;82;21168;-79
2023/05/10 07:59:38;;;;;;;5.15;1.70;;;;;;;15.82;38.21;100708.84;1736991;82;21228;-79
2023/05/10 08:02:45;;;;;;;4.90;1.25;;;;;;;15.88;37.14;100707.19;1687711;83;21252;-79
2023/05/10 08:05:52;;;;;;;3.35;1.60;;;;;;;16.05;37.40;100708.59;1702509;83;21193;-79
2023/05/10 08:09:00;;;;;;;3.12;1.30;;;;;;;16.19;37.17;100697.95;1739476;82;21201;-79
2023/05/10 08:12:06;;;;;;;4.62;1.65;;;;;;;16.44;37.73;100706.56;1736363;81;21333;-79
2023/05/10 08:15:13;;;;;;;3.52;1.47;;;;;;;16.49;36.56;100698.52;1742666;80;21184;-79
2023/05/10 08:18:18;;;;;;;12.00;1.77;;;;;;;16.42;36.97;100699.03;1704637;82;21196;-79
2023/05/10 08:21:24;;;;;;;2.77;1.12;;;;;;;16.25;37.89;100698.51;1733532;82;21201;-79
2023/05/10 08:24:29;;;;;;;3.90;1.70;;;;;;;15.96;38.13;100700.14;1731984;82;21215;-79
2023/05/10 08:27:35;;;;;;;4.75;1.67;;;;;;;15.81;37.47;100705.77;1749595;80;21184;-79
2023/05/10 08:30:41;;;;;;;7.15;1.80;;;;;;;15.83;37.84;100700.89;1740986;81;21172;-79
2023/05/10 08:33:48;;;;;;;6.78;1.62;;;;;;;15.80;37.14;100700.75;1741457;81;21747;-79
2023/05/10 08:36:54;;;;;;;4.65;1.40;;;;;;;15.94;38.00;100698.09;1736917;82;21220;-79
2023/05/10 08:40:00;;;;;;;2.42;1.25;;;;;;;15.95;37.16;100699.30;1729682;82;21188;-79
2023/05/10 08:43:19;;;;;;;2.67;1.25;;;;;;;15.88;38.16;100700.29;1727720;82;21231;-79
2023/05/10 08:46:25;;;;;;;5.90;1.70;;;;;;;15.53;39.51;100698.30;1734194;82;21232;-79
2023/05/10 08:49:30;;;;;;;4.22;1.80;;;;;;;15.41;39.04;100695.75;1729871;82;21164;-79
2023/05/10 08:52:36;;;;;;;5.30;1.30;;;;;;;15.37;40.11;100690.30;1731697;82;21193;-79
2023/05/10 08:55:42;;;;;;;3.45;1.42;;;;;;;15.44;39.25;100689.00;1736549;81;22460;-79
2023/05/10 08:58:49;;;;;;;2.90;1.30;;;;;;;15.43;38.96;100681.76;1733409;81;21233;-79
2023/05/10 09:01:55;;;;;;;7.03;1.20;;;;;;;15.52;38.19;100695.20;1732321;82;21391;-79
2023/05/10 09:05:00;;;;;;;8.13;1.17;;;;;;;15.44;38.49;100702.26;1723493;82;21244;-79
2023/05/10 09:08:06;;;;;;;3.10;1.20;;;;;;;15.44;38.44;100684.34;1726956;82;21221;-79
2023/05/10 09:11:13;;;;;;;3.58;1.30;;;;;;;15.55;37.83;100686.54;1728856;82;21224;-79
2023/05/10 09:14:18;;;;;;;11.28;1.32;;;;;;;15.52;37.77;100686.92;1720554;82;21165;-79
2023/05/10 09:17:24;;;;;;;1.95;0.93;;;;;;;15.60;38.36;100685.41;1725045;82;21184;-78
2023/05/10 09:20:31;;;;;;;1.95;1.15;;;;;;;15.78;38.27;100686.86;1725185;82;21234;-78
2023/05/10 09:23:36;;;;;;;6.25;1.40;;;;;;;15.58;37.46;100683.39;1729535;82;21170;-79
2023/05/10 09:26:54;;;;;;;7.03;1.22;;;;;;;15.69;36.36;100678.41;1729052;82;21308;-79
2023/05/10 09:30:00;;;;;;;3.45;1.02;;;;;;;15.71;35.86;100681.80;1732594;82;21312;-78
2023/05/10 09:33:06;;;;;;;6.03;1.32;;;;;;;15.50;39.25;100689.05;1708633;83;22476;-79
2023/05/10 09:36:14;;;;;;;6.72;1.22;;;;;;;15.38;39.98;100682.36;1704450;84;21245;-79
2023/05/10 09:39:20;;;;;;;5.33;1.30;;;;;;;15.05;40.77;100688.41;1705862;83;21236;-79
2023/05/10 09:42:26;;;;;;;8.30;1.40;;;;;;;14.93;42.26;100695.50;1709347;82;21736;-78
2023/05/10 09:45:38;;;;;;;4.65;1.52;;;;;;;15.13;42.43;100690.19;1710397;82;21228;-79
2023/05/10 09:48:51;;;;;;;5.33;1.20;;;;;;;15.11;43.56;100690.08;1712891;82;21239;-79
2023/05/10 09:52:12;;;;;;;2.75;1.30;;;;;;;15.26;42.13;100678.45;1710390;83;21175;-79
2023/05/10 09:55:18;;;;;;;6.37;1.12;;;;;;;15.46;41.71;100680.00;1698330;82;21193;-79
2023/05/10 09:58:24;;;;;;;7.03;1.77;;;;;;;15.72;43.45;100675.27;1682140;84;21180;-79
2023/05/10 10:01:31;;;;;;;7.55;1.50;;;;;;;16.27;41.38;100690.02;1715221;82;21224;-79
2023/05/10 10:04:37;;;;;;;6.55;1.60;;;;;;;16.27;40.75;100683.11;1723645;81;21191;-79
2023/05/10 10:07:42;;;;;;;5.53;1.85;;;;;;;16.16;39.63;100689.22;1753506;81;21164;-79
2023/05/10 10:10:40;;;;;;;3.58;1.80;;;;;;;15.95;39.95;100683.24;1718365;83;21228;-79
2023/05/10 10:13:34;;;;;;;6.45;2.00;;;;;;;15.83;39.35;100675.54;1726360;82;21216;-79
2023/05/10 10:16:39;;;;;;;5.17;1.60;;;;;;;15.68;39.76;100675.33;1693731;83;21204;-79
2023/05/10 10:19:45;;;;;;;4.20;1.27;;;;;;;15.85;39.50;100675.33;1678786;85;22099;-79
2023/05/10 10:22:52;;;;;;;3.40;1.50;;;;;;;15.71;39.86;100665.26;1685280;85;21817;-79
2023/05/10 10:25:57;;;;;;;6.50;1.72;;;;;;;15.90;39.36;100660.93;1718741;83;21814;-79
2023/05/10 10:29:22;;;;;;;7.45;2.02;;;;;;;16.19;38.57;100665.36;1709232;83;21179;-79
2023/05/10 10:32:47;;;;;;;8.03;1.50;;;;;;;16.47;38.25;100679.94;1702441;83;21259;-79
2023/05/10 10:35:53;;;;;;;4.85;1.77;;;;;;;16.35;38.65;100665.01;1709267;83;21862;-79
2023/05/10 10:39:06;;;;;;;7.12;1.52;;;;;;;16.32;38.75;100659.88;1714509;83;21811;-79
2023/05/10 10:42:12;;;;;;;3.90;1.60;;;;;;;16.39;38.46;100658.02;1712893;83;21231;-79
2023/05/10 10:45:21;;;;;;;4.15;1.50;;;;;;;16.50;36.59;100651.89;1717655;83;22404;-80
2023/05/10 10:48:30;;;;;;;3.27;1.30;;;;;;;16.58;35.98;100654.48;1716575;83;21227;-80
2023/05/10 10:51:37;;;;;;;9.20;1.70;;;;;;;16.58;36.54;100660.00;1708845;83;21308;-79
2023/05/10 10:54:44;;;;;;;8.50;1.60;;;;;;;16.79;36.60;100659.02;1716613;83;21743;-80
2023/05/10 10:58:02;;;;;;;5.78;1.72;;;;;;;16.97;36.43;100654.28;1709809;83;21768;-79
2023/05/10 11:01:23;;;;;;;5.62;1.77;;;;;;;17.03;36.00;100647.94;1720793;83;21343;-78
2023/05/10 11:04:29;;;;;;;3.83;1.40;;;;;;;17.17;35.48;100655.69;1711253;83;21781;-79
2023/05/10 11:07:34;;;;;;;4.58;1.55;;;;;;;17.18;35.66;100649.66;1688227;83;21191;-79
2023/05/10 11:10:41;;;;;;;5.55;1.30;;;;;;;17.14;36.22;100663.58;1659429;86;21204;-79
2023/05/10 11:13:56;;;;;;;3.08;1.40;;;;;;;16.88;35.19;100658.84;1662910;86;21747;-80
2023/05/10 11:17:02;;;;;;;6.05;1.60;;;;;;;16.69;35.48;100667.36;1662481;86;21232;-79
2023/05/10 11:20:22;;;;;;;3.00;1.22;;;;;;;16.58;35.92;100660.00;1658926;86;21798;-80
2023/05/10 11:23:26;;;;;;;2.80;1.47;;;;;;;16.63;36.13;100658.53;1705146;83;21200;-80
2023/05/10 11:26:38;;;;;;;6.62;1.50;;;;;;;16.77;36.36;100651.48;1702380;83;21318;-80
2023/05/10 11:29:42;;;;;;;;;;;;;;;16.69;36.47;100653.02;1713060;83;21172;-80
2023/05/10 11:32:47;;;;;;;4.53;1.57;;;;;;;16.87;35.25;100649.70;1717046;83;20262;-79
2023/05/10 11:35:53;;;;;;;8.78;1.80;;;;;;;16.91;35.25;100639.94;1715573;83;21240;-80
2023/05/10 11:39:01;;;;;;;3.40;2.00;;;;;;;16.91;35.51;100644.08;1700664;83;21201;-80
2023/05/10 11:42:09;;;;;;;7.08;2.72;;;;;;;16.98;35.72;100638.55;1700701;83;21201;-80
2023/05/10 11:45:14;;;;;;;4.75;1.85;;;;;;;16.97;35.92;100640.47;1713064;83;21192;-80
2023/05/10 11:48:23;;;;;;;9.70;1.70;;;;;;;17.19;35.85;100641.14;1710506;83;21208;-80
2023/05/10 11:51:32;;;;;;;3.25;1.57;;;;;;;17.45;35.13;100638.05;1699707;83;21184;-80
2023/05/10 11:54:31;;;;;;;5.47;2.30;;;;;;;17.77;35.81;100637.19;1703812;83;21787;-79
2023/05/10 11:57:38;;;;;;;6.83;1.87;;;;;;;18.03;35.39;100638.22;1714230;83;21240;-79
2023/05/10 12:00:44;;;;;;;5.28;1.92;;;;;;;18.19;34.24;100634.95;1700322;83;21207;-79
2023/05/10 12:03:50;;;;;;;10.32;2.37;;;;;;;18.11;32.76;100632.42;1704062;83;21196;-79
2023/05/10 12:06:56;;;;;;;7.60;2.37;;;;;;;17.99;33.07;100641.95;1721278;81;21593;-79
2023/05/10 12:10:21;;;;;;;3.58;1.60;;;;;;;17.85;33.51;100638.89;1739269;82;21251;-79
2023/05/10 12:13:28;;;;;;;11.80;2.08;;;;;;;17.85;33.46;100643.05;1742975;82;21187;-79
2023/05/10 12:16:35;;;;;;;3.00;1.82;;;;;;;17.83;33.45;100643.78;1748901;82;21149;-79
2023/05/10 12:19:47;;;;;;;6.83;2.10;;;;;;;17.71;34.67;100633.03;1739507;81;21192;-79
2023/05/10 12:22:54;;;;;;;4.45;1.72;;;;;;;17.70;33.37;100638.26;1745731;82;21192;-80
2023/05/10 12:26:01;;;;;;;7.40;1.98;;;;;;;17.79;33.24;100630.93;1747373;82;21291;-80
2023/05/10 12:29:26;;;;;;;5.03;2.22;;;;;;;17.70;32.95;100635.49;1746079;82;21235;-80
2023/05/10 12:32:46;;;;;;;4.25;2.30;;;;;;;17.21;33.29;100629.86;1714965;83;21256;-80
2023/05/10 12:35:57;;;;;;;9.10;2.17;;;;;;;17.49;33.56;100636.02;1741346;82;21588;-80
2023/05/10 12:39:11;;;;;;;3.47;1.42;;;;;;;17.78;33.85;100638.89;1731308;82;21210;-80
2023/05/10 12:42:17;;;;;;;4.30;1.40;;;;;;;17.47;35.80;100651.99;1737851;82;21169;-80
2023/05/10 12:45:18;;;;;;;4.72;1.25;;;;;;;17.32;35.46;100642.53;1747946;82;21272;-80
2023/05/10 12:48:22;;;;;;;2.15;1.10;;;;;;;16.35;38.61;100658.11;1747382;82;21169;-80
2023/05/10 12:51:29;;;;;;;2.12;1.17;;;;;;;16.13;39.72;100656.50;1747339;82;21228;-80
2023/05/10 12:54:34;;;;;;;4.22;1.10;;;;;;;15.89;39.94;100652.34;1748444;82;21193;-80
2023/05/10 12:57:40;;;;;;;12.30;1.27;;;;;;;16.01;39.40;100659.00;1748288;82;21173;-80
2023/05/10 13:00:46;;;;;;;9.35;1.80;;;;;;;16.08;39.30;100659.34;1747109;82;21200;-79
2023/05/10 13:03:52;;;;;;;7.05;1.50;;;;;;;16.20;39.69;100653.27;1748209;82;21197;-80
2023/05/10 13:06:58;;;;;;;5.25;1.25;;;;;;;16.06;38.62;100660.63;1747408;82;21224;-80
2023/05/10 13:10:05;;;;;;;4.00;1.30;;;;;;;16.00;38.68;100647.12;1752354;80;21224;-80
2023/05/10 13:13:11;;;;;;;2.50;1.20;;;;;;;16.01;38.49;100659.85;1738889;82;21180;-80
2023/05/10 13:16:18;;;;;;;2.20;1.40;;;;;;;15.92;38.37;100656.92;1751951;82;21268;-80
2023/05/10 13:19:24;;;;;;;5.70;1.02;;;;;;;15.95;39.02;100656.53;1738450;82;21702;-80
2023/05/10 13:22:32;;;;;;;2.90;1.25;;;;;;;15.91;39.11;100651.63;1746399;82;21226;-80
2023/05/10 13:25:39;;;;;;;4.00;1.50;;;;;;;15.92;39.35;100645.05;1748190;82;21226;-79
2023/05/10 13:28:45;;;;;;;6.17;1.57;;;;;;;16.10;39.84;100650.35;1747903;82;21253;-80
2023/05/10 13:31:50;;;;;;;2.85;1.60;;;;;;;16.09;38.59;100636.73;1748082;82;21190;-80
2023/05/10 13:34:55;;;;;;;6.80;1.98;;;;;;;16.05;38.88;100643.75;1748092;82;21190;-80
2023/05/10 13:38:01;;;;;;;4.92;2.02;;;;;;;16.52;38.06;100643.42;1747114;82;21217;-80
2023/05/10 13:41:06;;;;;;;3.95;1.57;;;;;;;16.56;37.97;100648.33;1748169;82;21253;-80
2023/05/10 13:44:12;;;;;;;4.17;1.45;;;;;;;16.57;37.84;100636.75;1748676;82;21225;-79
2023/05/10 13:47:18;;;;;;;2.80;1.32;;;;;;;16.29;38.42;100641.00;1748469;82;21250;-79
2023/05/10 13:50:25;;;;;;;3.45;1.60;;;;;;;16.83;37.49;100642.89;1749030;82;21173;-79
2023/05/10 13:53:30;;;;;;;2.77;1.25;;;;;;;16.93;37.36;100641.09;1748634;82;21190;-79
2023/05/10 13:56:36;;;;;;;8.03;1.45;;;;;;;17.05;35.35;100646.34;1747315;82;21230;-79
2023/05/10 13:59:42;;;;;;;3.05;1.15;;;;;;;17.04;35.17;100644.64;1748337;82;21269;-79
2023/05/10 14:02:48;;;;;;;5.33;1.10;;;;;;;17.05;36.03;100645.80;1748690;82;21209;-79
2023/05/10 14:05:55;;;;;;;5.70;1.20;;;;;;;16.41;35.15;100650.37;1748895;82;21195;-79
2023/05/10 14:09:00;;;;;;;5.25;1.32;;;;;;;16.48;36.47;100645.73;1749175;82;21172;-79
2023/05/10 14:12:06;;;;;;;3.12;1.30;;;;;;;16.36;36.36;100649.61;1749287;82;21764;-79
2023/05/10 14:15:13;;;;;;;2.60;1.30;;;;;;;16.40;36.29;100652.81;1749016;82;21202;-79
2023/05/10 14:18:18;;;;;;;3.02;1.45;;;;;;;16.17;37.58;100657.80;1747513;82;21776;-79
2023/05/10 14:21:26;;;;;;;1.05;0.90;;;;;;;16.14;37.64;100654.06;1749882;82;21229;-80
2023/05/10 14:24:33;;;;;;;3.05;1.50;;;;;;;16.39;37.37;100644.22;1705402;82;21839;-80
2023/05/10 14:27:48;;;;;;;2.72;1.40;;;;;;;15.89;38.65;100649.05;1706179;83;21162;-80
2023/05/10 14:30:54;;;;;;;4.97;1.52;;;;;;;15.95;38.50;100661.17;1687676;83;21787;-79
2023/05/10 14:33:59;;;;;;;3.58;1.35;;;;;;;16.25;39.09;100657.64;1685738;84;21241;-79